createdAt,value
2022-08-22T00:01:32.346Z,6.07
2022-08-22T00:02:42.501Z,2.13
2022-08-22T00:03:12.733Z,4.90
2022-08-22T00:04:20.099Z,4.57
2022-08-22T00:07:19.178Z,5.32
2022-08-22T00:09:55.992Z,5.13
2022-08-22T00:12:34.655Z,5.78
2022-08-22T00:15:41.841Z,7.80
2022-08-22T00:18:28.572Z,5.90
2022-08-22T00:21:10.835Z,7.03
2022-08-22T00:24:01.370Z,5.50
2022-08-22T00:26:42.179Z,9.73
2022-08-22T00:29:57.387Z,5.85
2022-08-22T00:32:32.555Z,6.53
2022-08-22T00:35:14.921Z,5.30
2022-08-22T00:37:46.103Z,7.03
2022-08-22T00:40:45.200Z,9.13
2022-08-22T00:43:25.461Z,9.05
2022-08-22T00:46:19.751Z,8.82
2022-08-22T00:49:11.142Z,7.63
2022-08-22T00:52:03.374Z,8.57
2022-08-22T00:54:48.438Z,8.63
2022-08-22T00:57:20.842Z,6.95
2022-08-22T01:00:09.339Z,7.03
2022-08-22T01:03:01.478Z,8.05
2022-08-22T01:05:35.314Z,6.95
2022-08-22T01:08:20.838Z,6.55
2022-08-22T01:11:09.055Z,8.03
2022-08-22T01:14:08.161Z,7.22
2022-08-22T01:16:34.687Z,6.65
2022-08-22T01:19:38.467Z,6.22
2022-08-22T01:22:23.615Z,6.70
2022-08-22T01:25:17.736Z,9.35
2022-08-22T01:28:12.874Z,7.45
2022-08-22T01:30:58.022Z,6.28
2022-08-22T01:33:52.558Z,6.80
2022-08-22T01:36:52.733Z,7.65
2022-08-22T01:39:57.312Z,10.30
2022-08-22T01:42:45.611Z,6.97
2022-08-22T01:45:39.315Z,5.10
2022-08-22T01:48:11.920Z,6.72
2022-08-22T01:50:50.335Z,7.63
2022-08-22T01:53:36.845Z,7.85
2022-08-22T01:56:14.774Z,4.10
2022-08-22T01:58:59.839Z,10.52
2022-08-22T02:01:49.659Z,11.52
2022-08-22T02:04:32.529Z,5.32
2022-08-22T02:07:36.540Z,12.20
2022-08-22T02:10:02.962Z,7.93
2022-08-22T02:12:42.087Z,8.63
2022-08-22T02:15:14.546Z,6.82
2022-08-22T02:18:01.118Z,8.48
2022-08-22T02:20:40.532Z,6.65
2022-08-22T02:23:44.215Z,8.05
2022-08-22T02:26:17.699Z,8.57
2022-08-22T02:28:57.258Z,7.47
2022-08-22T02:31:54.529Z,7.65
2022-08-22T02:34:34.045Z,6.90
2022-08-22T02:37:09.650Z,5.10
2022-08-22T02:39:43.844Z,6.00
2022-08-22T02:42:34.259Z,4.95
2022-08-22T02:45:17.991Z,6.43
2022-08-22T02:48:05.049Z,7.30
2022-08-22T02:50:46.703Z,6.57
2022-08-22T02:53:51.030Z,6.93
2022-08-22T02:56:24.422Z,7.28
2022-08-22T02:59:16.458Z,9.52
2022-08-22T03:01:46.718Z,9.07
2022-08-22T03:04:21.303Z,6.25
2022-08-22T03:07:14.294Z,8.02
2022-08-22T03:09:58.171Z,7.43
2022-08-22T03:12:59.483Z,6.32
2022-08-22T03:15:39.444Z,8.27
2022-08-22T03:18:30.411Z,9.35
2022-08-22T03:21:14.018Z,5.57
2022-08-22T03:23:52.836Z,5.50
2022-08-22T03:26:40.943Z,8.05
2022-08-22T03:29:22.752Z,6.90
2022-08-22T03:32:08.015Z,10.30
2022-08-22T03:34:35.865Z,7.45
2022-08-22T03:37:21.505Z,11.23
2022-08-22T03:39:50.634Z,6.60
2022-08-22T03:42:54.487Z,5.20
2022-08-22T03:45:38.482Z,10.05
2022-08-22T03:48:26.778Z,7.63
2022-08-22T03:51:15.056Z,7.97
2022-08-22T03:53:51.175Z,4.97
2022-08-22T03:56:32.577Z,9.13
2022-08-22T03:59:36.695Z,6.32
2022-08-22T04:02:42.134Z,9.57
2022-08-22T04:05:35.321Z,8.18
2022-08-22T04:08:30.607Z,7.28
2022-08-22T04:11:33.910Z,5.00
2022-08-22T04:14:38.180Z,7.25
2022-08-22T04:17:40.056Z,5.85
2022-08-22T04:20:37.802Z,6.40
2022-08-22T04:23:36.942Z,7.60
2022-08-22T04:26:15.395Z,7.38
2022-08-22T04:28:50.874Z,7.57
2022-08-22T04:31:29.830Z,6.03
2022-08-22T04:34:28.622Z,9.35
2022-08-22T04:37:37.499Z,10.73
2022-08-22T04:40:15.291Z,6.80
2022-08-22T04:42:57.424Z,10.23
2022-08-22T04:45:32.254Z,9.73
2022-08-22T04:48:08.227Z,6.60
2022-08-22T04:53:29.024Z,4.32
2022-08-22T04:56:21.594Z,8.20
2022-08-22T04:59:00.535Z,6.80
2022-08-22T05:01:55.854Z,4.72
2022-08-22T05:04:27.515Z,7.78
2022-08-22T05:07:00.475Z,8.90
2022-08-22T05:09:31.698Z,9.32
2022-08-22T05:12:05.703Z,7.28
2022-08-22T05:14:37.863Z,8.68
2022-08-22T05:17:08.986Z,8.23
2022-08-22T05:19:40.028Z,5.63
2022-08-22T05:22:14.462Z,7.47
2022-08-22T05:24:46.414Z,5.75
2022-08-22T05:27:27.766Z,8.48
2022-08-22T05:30:16.942Z,7.10
2022-08-22T05:33:27.877Z,10.52
2022-08-22T05:36:09.357Z,7.65
2022-08-22T05:38:46.347Z,7.80
2022-08-22T05:41:19.197Z,8.88
2022-08-22T05:43:48.380Z,7.18
2022-08-22T05:46:26.900Z,8.43
2022-08-22T05:48:59.892Z,8.10
2022-08-22T05:51:46.242Z,5.85
2022-08-22T05:54:20.079Z,6.25
2022-08-22T05:57:51.558Z,6.85
2022-08-22T06:00:22.108Z,10.63
2022-08-22T06:02:54.531Z,6.18
2022-08-22T06:05:28.263Z,8.13
2022-08-22T06:08:02.920Z,8.98
2022-08-22T06:10:43.790Z,8.35
2022-08-22T06:13:20.377Z,7.63
2022-08-22T06:16:26.745Z,7.05
2022-08-22T06:18:54.509Z,8.73
2022-08-22T06:21:35.426Z,9.75
2022-08-22T06:24:09.528Z,7.88
2022-08-22T06:26:40.098Z,7.05
2022-08-22T06:29:08.570Z,8.85
2022-08-22T06:31:48.667Z,10.18
2022-08-22T06:34:26.349Z,8.68
2022-08-22T06:36:57.304Z,10.98
2022-08-22T06:39:30.234Z,9.40
2022-08-22T06:42:12.137Z,7.85
2022-08-22T06:44:50.127Z,7.15
2022-08-22T06:47:22.858Z,7.47
2022-08-22T06:49:54.608Z,7.63
2022-08-22T06:52:25.943Z,8.95
2022-08-22T06:55:00.376Z,9.75
2022-08-22T06:57:46.362Z,6.63
2022-08-22T07:00:16.988Z,7.93
2022-08-22T07:02:48.357Z,9.68
2022-08-22T07:05:20.732Z,5.65
2022-08-22T07:07:47.631Z,8.98
2022-08-22T07:10:15.833Z,6.85
2022-08-22T07:12:50.832Z,7.38
2022-08-22T07:15:34.491Z,6.07
2022-08-22T07:18:06.738Z,6.82
2022-08-22T07:20:45.673Z,7.78
2022-08-22T07:23:25.812Z,8.02
2022-08-22T07:26:02.916Z,9.30
2022-08-22T07:28:51.399Z,7.03
2022-08-22T07:31:49.076Z,9.15
2022-08-22T07:34:45.643Z,5.57
2022-08-22T07:37:26.987Z,8.63
2022-08-22T07:40:00.692Z,7.85
2022-08-22T07:42:43.800Z,7.63
2022-08-22T07:45:39.263Z,7.68
2022-08-22T07:48:22.638Z,4.93
2022-08-22T07:50:57.570Z,5.82
2022-08-22T07:53:30.300Z,8.93
2022-08-22T07:55:59.947Z,7.22
2022-08-22T07:58:29.512Z,9.05
2022-08-22T08:00:57.582Z,7.35
2022-08-22T08:03:27.217Z,6.78
2022-08-22T08:05:55.103Z,5.38
2022-08-22T08:08:31.404Z,6.22
2022-08-22T08:11:00.347Z,9.88
2022-08-22T08:13:36.706Z,10.40
2022-08-22T08:16:06.553Z,4.18
2022-08-22T08:18:35.413Z,5.90
2022-08-22T08:21:06.548Z,4.03
2022-08-22T08:23:40.191Z,6.28
2022-08-22T08:26:21.269Z,6.50
2022-08-22T08:28:52.259Z,7.50
2022-08-22T08:31:43.166Z,6.68
2022-08-22T08:34:22.513Z,4.05
2022-08-22T08:37:04.046Z,6.30
2022-08-22T08:39:35.799Z,4.95
2022-08-22T08:42:12.218Z,4.63
2022-08-22T08:44:41.567Z,9.02
2022-08-22T08:47:24.560Z,5.35
2022-08-22T08:50:02.259Z,4.88
2022-08-22T08:52:58.596Z,5.20
2022-08-22T08:55:44.042Z,8.65
2022-08-22T08:58:33.816Z,5.38
2022-08-22T09:01:40.790Z,6.32
2022-08-22T09:04:19.659Z,4.20
2022-08-22T09:06:58.700Z,4.85
2022-08-22T09:09:39.988Z,7.88
2022-08-22T09:12:18.815Z,6.32
2022-08-22T09:15:22.912Z,4.63
2022-08-22T09:18:01.579Z,3.85
2022-08-22T09:20:51.331Z,2.42
2022-08-22T09:23:30.088Z,3.90
2022-08-22T09:26:05.719Z,3.75
2022-08-22T09:34:34.577Z,3.53
2022-08-22T09:37:20.510Z,3.10
2022-08-22T09:40:03.959Z,3.25
2022-08-22T09:42:56.557Z,4.10
2022-08-22T09:46:15.711Z,4.95
2022-08-22T09:49:00.554Z,3.47
2022-08-22T09:51:43.580Z,3.22
2022-08-22T09:54:13.801Z,6.30
2022-08-22T09:56:52.405Z,3.33
2022-08-22T09:59:29.133Z,2.72
2022-08-22T10:02:52.785Z,4.60
2022-08-22T10:05:41.193Z,2.63
2022-08-22T10:08:20.107Z,3.55
2022-08-22T10:10:57.115Z,4.63
2022-08-22T10:13:32.630Z,3.83
2022-08-22T10:16:16.084Z,4.60
2022-08-22T10:19:05.270Z,3.90
2022-08-22T10:21:46.893Z,2.65
2022-08-22T10:24:43.834Z,2.60
2022-08-22T10:27:19.672Z,1.85
2022-08-22T10:30:02.888Z,3.72
2022-08-22T10:32:43.533Z,3.00
2022-08-22T10:35:22.066Z,3.10
2022-08-22T10:37:58.031Z,3.08
2022-08-22T10:41:01.419Z,3.63
2022-08-22T10:43:40.799Z,2.97
2022-08-22T10:46:15.343Z,2.67
2022-08-22T10:48:58.676Z,4.00
2022-08-22T10:51:49.737Z,2.38
2022-08-22T10:54:41.939Z,3.47
2022-08-22T10:57:24.908Z,2.15
2022-08-22T11:00:03.730Z,4.45
2022-08-22T11:02:35.542Z,5.75
2022-08-22T11:05:19.754Z,4.60
2022-08-22T11:08:06.384Z,3.22
2022-08-22T11:11:22.702Z,4.70
2022-08-22T11:14:27.067Z,3.20
2022-08-22T11:17:23.636Z,1.83
2022-08-22T11:20:09.035Z,2.42
2022-08-22T11:22:51.087Z,4.28
2022-08-22T11:25:54.838Z,4.88
2022-08-22T11:28:37.332Z,4.85
2022-08-22T11:31:47.192Z,3.33
2022-08-22T11:34:44.761Z,6.57
2022-08-22T11:37:23.830Z,3.45
2022-08-22T11:40:13.181Z,4.88
2022-08-22T11:43:01.004Z,3.03
2022-08-22T11:45:40.084Z,2.17
2022-08-22T11:48:26.508Z,2.85
2022-08-22T11:51:24.908Z,3.90
2022-08-22T11:54:19.781Z,2.22
2022-08-22T11:56:56.198Z,2.00
2022-08-22T11:59:42.999Z,2.13
2022-08-22T12:02:20.911Z,3.78
2022-08-22T12:04:57.470Z,1.67
2022-08-22T12:07:31.412Z,2.92
2022-08-22T12:10:04.135Z,2.97
2022-08-22T12:12:42.916Z,2.13
2022-08-22T12:15:41.686Z,2.22
2022-08-22T12:18:26.737Z,2.70
2022-08-22T12:21:13.541Z,2.70
2022-08-22T12:23:56.629Z,1.90
2022-08-22T12:27:00.814Z,1.90
2022-08-22T12:29:33.932Z,2.13
2022-08-22T12:32:34.449Z,2.00
2022-08-22T12:35:16.139Z,2.53
2022-08-22T12:38:29.362Z,1.40
2022-08-22T12:41:07.895Z,1.70
2022-08-22T12:43:54.094Z,2.75
2022-08-22T12:46:48.442Z,2.65
2022-08-22T12:49:30.964Z,1.20
2022-08-22T12:52:18.729Z,2.30
2022-08-22T12:54:54.376Z,1.65
2022-08-22T12:57:36.077Z,2.97
2022-08-22T13:00:23.023Z,3.80
2022-08-22T13:02:55.234Z,2.35
2022-08-22T13:05:26.666Z,3.42
2022-08-22T13:08:04.300Z,2.10
2022-08-22T13:10:39.206Z,2.35
2022-08-22T13:13:12.002Z,3.33
2022-08-22T13:15:45.065Z,1.92
2022-08-22T13:18:31.493Z,3.25
2022-08-22T13:21:02.434Z,3.10
2022-08-22T13:23:39.592Z,2.25
2022-08-22T13:26:32.147Z,2.60
2022-08-22T13:29:39.122Z,2.13
2022-08-22T13:32:08.622Z,1.80
2022-08-22T13:34:43.479Z,2.45
2022-08-22T13:37:17.474Z,1.77
2022-08-22T13:39:50.293Z,2.47
2022-08-22T13:42:30.492Z,1.95
2022-08-22T13:45:02.809Z,3.85
2022-08-22T13:47:31.564Z,1.83
2022-08-22T13:50:04.307Z,1.77
2022-08-22T13:52:41.291Z,3.25
2022-08-22T13:55:24.043Z,2.38
2022-08-22T13:58:20.112Z,2.80
2022-08-22T14:01:09.374Z,2.33
2022-08-22T14:03:48.620Z,4.85
2022-08-22T14:06:37.786Z,1.90
2022-08-22T14:09:29.412Z,2.50
2022-08-22T14:12:24.522Z,2.15
2022-08-22T14:14:59.545Z,3.95
2022-08-22T14:17:42.820Z,2.30
2022-08-22T14:20:11.190Z,2.35
2022-08-22T14:22:41.178Z,3.25
2022-08-22T14:25:18.334Z,2.17
2022-08-22T14:27:52.465Z,4.43
2022-08-22T14:30:24.552Z,3.88
2022-08-22T14:33:09.138Z,5.82
2022-08-22T14:35:43.871Z,3.35
2022-08-22T14:38:27.373Z,3.85
2022-08-22T14:41:06.166Z,4.57
2022-08-22T14:43:32.680Z,2.35
2022-08-22T14:46:21.214Z,2.15
2022-08-22T14:49:29.094Z,3.72
2022-08-22T14:52:19.533Z,2.55
2022-08-22T14:54:46.807Z,2.33
2022-08-22T14:57:19.711Z,1.50
2022-08-22T14:59:52.550Z,2.60
2022-08-22T15:02:21.792Z,3.13
2022-08-22T15:04:53.170Z,3.60
2022-08-22T15:07:25.880Z,4.63
2022-08-22T15:09:58.735Z,3.25
2022-08-22T15:12:38.410Z,5.20
2022-08-22T15:15:52.552Z,3.75
2022-08-22T15:18:27.266Z,4.50
2022-08-22T15:21:10.117Z,2.83
2022-08-22T15:23:45.232Z,4.65
2022-08-22T15:26:23.155Z,5.75
2022-08-22T15:29:27.517Z,4.22
2022-08-22T15:32:01.067Z,2.53
2022-08-22T15:34:35.707Z,4.53
2022-08-22T15:37:25.302Z,3.45
2022-08-22T15:40:27.510Z,3.85
2022-08-22T15:42:58.270Z,1.75
2022-08-22T15:45:34.878Z,3.05
2022-08-22T15:48:09.250Z,2.90
2022-08-22T15:50:58.487Z,2.40
2022-08-22T15:53:30.531Z,2.80
2022-08-22T15:56:05.473Z,3.90
2022-08-22T15:58:37.173Z,3.88
2022-08-22T16:01:19.943Z,3.17
2022-08-22T16:03:55.760Z,4.85
2022-08-22T16:06:42.403Z,3.40
2022-08-22T16:09:27.451Z,3.05
2022-08-22T16:11:56.466Z,5.03
2022-08-22T16:14:35.521Z,4.47
2022-08-22T16:17:08.296Z,3.55
2022-08-22T16:19:35.569Z,2.72
2022-08-22T16:22:05.309Z,3.42
2022-08-22T16:24:34.350Z,3.15
2022-08-22T16:27:22.538Z,2.65
2022-08-22T16:30:01.433Z,5.45
2022-08-22T16:32:28.569Z,5.82
2022-08-22T16:34:55.328Z,3.60
2022-08-22T16:37:46.703Z,3.85
2022-08-22T16:40:20.019Z,2.75
2022-08-22T16:42:51.609Z,2.90
2022-08-22T16:45:34.919Z,3.70
2022-08-22T16:48:34.535Z,2.67
2022-08-22T16:51:18.846Z,5.05
2022-08-22T16:54:03.355Z,3.58
2022-08-22T16:56:39.146Z,3.92
2022-08-22T17:02:03.083Z,5.43
2022-08-22T17:05:16.839Z,3.78
2022-08-22T17:08:05.733Z,2.42
2022-08-22T17:11:11.711Z,3.70
2022-08-22T17:14:02.460Z,4.10
2022-08-22T17:16:58.834Z,3.47
2022-08-22T17:19:45.453Z,2.63
2022-08-22T17:22:25.962Z,3.20
2022-08-22T17:25:20.372Z,5.40
2022-08-22T17:27:52.524Z,4.60
2022-08-22T17:30:43.235Z,3.53
2022-08-22T17:33:20.271Z,3.78
2022-08-22T17:35:57.190Z,3.45
2022-08-22T17:38:44.579Z,3.53
2022-08-22T17:41:26.563Z,3.40
2022-08-22T17:44:08.332Z,3.33
2022-08-22T17:46:50.733Z,2.50
2022-08-22T17:49:28.559Z,9.32
2022-08-22T17:51:58.853Z,4.45
2022-08-22T17:54:35.574Z,2.50
2022-08-22T17:57:14.300Z,3.38
2022-08-22T17:59:52.362Z,3.58
2022-08-22T18:02:33.922Z,2.80
2022-08-22T18:05:24.998Z,3.28
2022-08-22T18:08:37.539Z,3.60
2022-08-22T18:13:42.063Z,2.73
2022-08-22T18:16:14.118Z,3.00
2022-08-22T18:18:53.958Z,3.78
2022-08-22T18:21:35.546Z,4.38
2022-08-22T18:24:17.535Z,3.33
2022-08-22T18:27:02.716Z,2.95
2022-08-22T18:29:50.558Z,3.72
2022-08-22T18:32:24.150Z,2.78
2022-08-22T18:35:10.114Z,3.63
2022-08-22T18:37:37.108Z,2.22
2022-08-22T18:40:20.614Z,2.97
2022-08-22T18:43:06.815Z,3.45
2022-08-22T18:45:45.651Z,3.45
2022-08-22T18:48:30.300Z,2.28
2022-08-22T18:51:18.572Z,4.30
2022-08-22T18:53:59.003Z,4.93
2022-08-22T18:56:33.091Z,4.32
2022-08-22T18:59:06.358Z,4.68
2022-08-22T19:02:10.675Z,5.95
2022-08-22T19:05:00.318Z,4.20
2022-08-22T19:07:58.177Z,5.50
2022-08-22T19:10:39.976Z,3.67
2022-08-22T19:13:48.915Z,7.10
2022-08-22T19:16:25.451Z,6.53
2022-08-22T19:18:57.376Z,6.05
2022-08-22T19:21:54.738Z,3.35
2022-08-22T19:24:27.094Z,4.10
2022-08-22T19:27:18.149Z,3.97
2022-08-22T19:29:44.532Z,5.15
2022-08-22T19:32:33.101Z,6.55
2022-08-22T19:35:43.514Z,4.22
2022-08-22T19:38:11.484Z,4.03
2022-08-22T19:40:46.988Z,3.78
2022-08-22T19:43:34.480Z,4.35
2022-08-22T19:46:05.399Z,2.25
2022-08-22T19:48:45.568Z,3.92
2022-08-22T19:51:20.380Z,4.75
2022-08-22T19:54:06.819Z,3.47
2022-08-22T19:56:51.711Z,5.10
2022-08-22T19:59:25.621Z,3.88
2022-08-22T20:02:16.947Z,5.00
2022-08-22T20:05:01.735Z,2.25
2022-08-22T20:07:50.046Z,3.10
2022-08-22T20:10:34.427Z,3.83
2022-08-22T20:13:05.036Z,4.75
2022-08-22T20:15:36.080Z,4.47
2022-08-22T20:18:12.459Z,5.38
2022-08-22T20:20:59.063Z,4.60
2022-08-22T20:23:30.849Z,4.00
2022-08-22T20:25:58.031Z,2.97
2022-08-22T20:28:34.416Z,4.72
2022-08-22T20:31:03.454Z,2.92
2022-08-22T20:33:38.462Z,4.32
2022-08-22T20:36:27.238Z,4.27
2022-08-22T20:39:01.677Z,4.13
2022-08-22T20:41:36.930Z,3.75
2022-08-22T20:44:21.747Z,4.40
2022-08-22T20:46:53.317Z,5.10
2022-08-22T20:49:30.335Z,4.32
2022-08-22T20:52:01.605Z,3.75
2022-08-22T20:54:34.574Z,4.45
2022-08-22T20:57:10.042Z,4.85
2022-08-22T20:59:49.144Z,4.88
2022-08-22T21:02:20.331Z,6.05
2022-08-22T21:04:57.257Z,3.78
2022-08-22T21:07:37.355Z,3.83
2022-08-22T21:10:27.475Z,5.90
2022-08-22T21:13:08.533Z,4.85
2022-08-22T21:15:49.978Z,2.35
2022-08-22T21:18:38.349Z,4.18
2022-08-22T21:21:17.049Z,3.10
2022-08-22T21:23:47.523Z,6.13
2022-08-22T21:26:30.047Z,3.63
2022-08-22T21:29:01.155Z,3.70
2022-08-22T21:31:34.440Z,4.03
2022-08-22T21:34:01.942Z,3.55
2022-08-22T21:36:31.088Z,4.22
2022-08-22T21:39:04.290Z,4.88
2022-08-22T21:41:43.942Z,4.93
2022-08-22T21:44:32.919Z,6.60
2022-08-22T21:47:14.525Z,4.68
2022-08-22T21:50:20.853Z,5.57
2022-08-22T21:52:56.443Z,3.88
2022-08-22T21:55:27.388Z,4.50
2022-08-22T21:58:09.009Z,4.43
2022-08-22T22:00:40.099Z,5.90
2022-08-22T22:03:17.447Z,3.17
2022-08-22T22:05:44.317Z,3.35
2022-08-22T22:08:11.584Z,9.38
2022-08-22T22:10:40.902Z,3.97
2022-08-22T22:13:07.903Z,6.68
2022-08-22T22:15:39.603Z,7.07
2022-08-22T22:18:06.751Z,4.22
2022-08-22T22:20:33.344Z,2.83
2022-08-22T22:22:59.812Z,3.47
2022-08-22T22:25:40.854Z,4.68
2022-08-22T22:28:17.583Z,2.72
2022-08-22T22:30:45.455Z,4.30
2022-08-22T22:33:12.103Z,4.63
2022-08-22T22:35:40.837Z,3.58
2022-08-22T22:38:08.516Z,3.40
2022-08-22T22:40:35.213Z,4.82
2022-08-22T22:43:01.858Z,3.10
2022-08-22T22:45:28.616Z,5.32
2022-08-22T22:47:55.210Z,4.03
2022-08-22T22:50:21.705Z,3.95
2022-08-22T22:52:48.234Z,3.40
2022-08-22T22:55:24.412Z,4.45
2022-08-22T22:57:59.097Z,3.17
2022-08-22T23:00:29.199Z,4.35
2022-08-22T23:02:59.382Z,4.35
2022-08-22T23:05:25.865Z,5.05
2022-08-22T23:07:52.348Z,3.47
2022-08-22T23:10:22.081Z,4.22
2022-08-22T23:12:48.959Z,4.03
2022-08-22T23:15:15.652Z,3.72
2022-08-22T23:17:42.605Z,3.58
2022-08-22T23:20:09.449Z,4.32
2022-08-22T23:22:35.889Z,2.75
2022-08-22T23:25:02.367Z,3.60
2022-08-22T23:27:28.895Z,3.28
2022-08-22T23:29:55.393Z,4.60
2022-08-22T23:32:21.851Z,2.55
2022-08-22T23:34:48.846Z,3.53
2022-08-22T23:37:18.616Z,4.15
2022-08-22T23:39:45.326Z,3.45
2022-08-22T23:42:12.531Z,4.57
2022-08-22T23:44:41.143Z,4.07
2022-08-22T23:47:09.786Z,4.68
2022-08-22T23:49:37.917Z,4.03
2022-08-22T23:52:06.254Z,3.60
2022-08-22T23:54:33.774Z,3.25
2022-08-22T23:57:02.421Z,3.88
2022-08-22T23:59:35.321Z,3.95
